Time,TemperatureF,DewpointF,PressureIn,WindDirection,WindDirectionDegrees,WindSpeedMPH,WindSpeedGustMPH,Humidity,HourlyPrecipIn,Conditions,Clouds,dailyrainin,SoftwareType,DateUTC
2013-01-13 00:04:00,41.4,26.4,30.20,SSE,168,0.0,0.0,55,0.00,,,0.00,Wunderground v.1.15,2013-01-13 08:04:00,
2013-01-13 00:09:00,41.1,26.1,30.20,SSE,168,0.0,0.0,55,0.00,,,0.00,Wunderground v.1.15,2013-01-13 08:09:00,
2013-01-13 00:14:00,40.8,25.9,30.20,SSE,168,0.0,0.0,55,0.00,,,0.00,Wunderground v.1.15,2013-01-13 08:14:00,
2013-01-13 00:19:00,40.4,25.5,30.20,SSE,168,0.0,0.0,55,0.00,,,0.00,Wunderground v.1.15,2013-01-13 08:19:00,
2013-01-13 00:25:00,40.0,25.1,30.20,SSE,168,0.0,0.0,55,0.00,,,0.00,Wunderground v.1.15,2013-01-13 08:25:00,
2013-01-13 00:30:00,39.6,24.7,30.20,SSE,168,0.0,0.0,55,0.00,,,0.00,Wunderground v.1.15,2013-01-13 08:30:00,
2013-01-13 00:35:00,39.1,25.1,30.20,SSE,168,0.0,0.0,57,0.00,,,0.00,Wunderground v.1.15,2013-01-13 08:35:00,
2013-01-13 00:40:00,38.6,24.7,30.20,SSE,168,0.0,0.0,57,0.00,,,0.00,Wunderground v.1.15,2013-01-13 08:40:00,
2013-01-13 00:45:00,38.2,24.7,30.20,SSE,168,0.0,0.0,58,0.00,,,0.00,Wunderground v.1.15,2013-01-13 08:45:00,
2013-01-13 00:51:00,37.9,24.8,30.20,SSE,168,0.0,0.0,59,0.00,,,0.00,Wunderground v.1.15,2013-01-13 08:51:00,
2013-01-13 00:56:00,37.7,25.1,30.20,SSE,168,0.0,0.0,60,0.00,,,0.00,Wunderground v.1.15,2013-01-13 08:56:00,
2013-01-13 01:01:00,37.7,25.5,30.20,SSE,168,0.0,0.0,61,0.00,,,0.00,Wunderground v.1.15,2013-01-13 09:01:00,
2013-01-13 01:07:00,37.6,25.4,30.20,SSE,168,0.0,0.0,61,0.00,,,0.00,Wunderground v.1.15,2013-01-13 09:07:00,
2013-01-13 01:13:00,37.5,25.3,30.21,SSE,168,0.0,0.0,61,0.00,,,0.00,Wunderground v.1.15,2013-01-13 09:13:00,
2013-01-13 01:18:00,37.4,25.2,30.21,SSE,168,0.0,0.0,61,0.00,,,0.00,Wunderground v.1.15,2013-01-13 09:18:00,
2013-01-13 01:23:00,37.3,25.5,30.21,SSE,168,0.0,0.0,62,0.00,,,0.00,Wunderground v.1.15,2013-01-13 09:23:00,
2013-01-13 01:28:00,37.1,24.9,30.21,SSE,168,0.0,0.0,61,0.00,,,0.00,Wunderground v.1.15,2013-01-13 09:28:00,
2013-01-13 01:33:00,37.0,25.2,30.21,SSE,168,0.0,0.0,62,0.00,,,0.00,Wunderground v.1.15,2013-01-13 09:33:00,
2013-01-13 01:39:00,36.9,25.5,30.20,SSE,168,0.0,0.0,63,0.00,,,0.00,Wunderground v.1.15,2013-01-13 09:39:00,
2013-01-13 01:44:00,37.0,25.2,30.20,SSE,168,0.0,0.0,62,0.00,,,0.00,Wunderground v.1.15,2013-01-13 09:44:00,
2013-01-13 01:49:00,37.5,24.5,30.20,SSE,168,0.0,0.0,59,0.00,,,0.00,Wunderground v.1.15,2013-01-13 09:49:00,
2013-01-13 01:54:00,38.0,24.5,30.20,SSE,168,0.0,0.0,58,0.00,,,0.00,Wunderground v.1.15,2013-01-13 09:54:00,
2013-01-13 01:59:00,38.5,24.1,30.20,SSE,168,0.0,0.0,56,0.00,,,0.00,Wunderground v.1.15,2013-01-13 09:59:00,
2013-01-13 02:04:00,38.8,24.0,30.20,SSE,168,0.0,0.0,55,0.00,,,0.00,Wunderground v.1.15,2013-01-13 10:04:00,
2013-01-13 02:09:00,39.0,24.2,30.21,SSE,168,0.0,0.0,55,0.00,,,0.00,Wunderground v.1.15,2013-01-13 10:09:00,
2013-01-13 02:14:00,38.8,24.4,30.21,SSE,168,0.0,0.0,56,0.00,,,0.00,Wunderground v.1.15,2013-01-13 10:14:00,
2013-01-13 02:19:00,38.6,24.7,30.21,SSE,168,0.0,0.0,57,0.00,,,0.00,Wunderground v.1.15,2013-01-13 10:19:00,
2013-01-13 02:24:00,38.2,24.3,30.21,SSE,168,0.0,0.0,57,0.00,,,0.00,Wunderground v.1.15,2013-01-13 10:24:00,
2013-01-13 02:29:00,37.9,24.0,30.21,SSE,168,0.0,0.0,57,0.00,,,0.00,Wunderground v.1.15,2013-01-13 10:29:00,
2013-01-13 02:34:00,37.8,23.5,30.21,SSE,168,0.0,0.0,56,0.00,,,0.00,Wunderground v.1.15,2013-01-13 10:34:00,
2013-01-13 02:39:00,37.5,23.6,30.21,SSE,168,0.0,0.0,57,0.00,,,0.00,Wunderground v.1.15,2013-01-13 10:39:00,
2013-01-13 02:44:00,37.2,23.8,30.21,SSE,168,0.0,0.0,58,0.00,,,0.00,Wunderground v.1.15,2013-01-13 10:44:00,
2013-01-13 02:49:00,36.9,23.5,30.21,SSE,168,0.0,0.0,58,0.00,,,0.00,Wunderground v.1.15,2013-01-13 10:49:00,
2013-01-13 02:54:00,36.6,23.2,30.21,SSE,168,0.0,0.0,58,0.00,,,0.00,Wunderground v.1.15,2013-01-13 10:54:00,
2013-01-13 02:59:00,36.4,23.0,30.21,SSE,168,0.0,0.0,58,0.00,,,0.00,Wunderground v.1.15,2013-01-13 10:59:00,
2013-01-13 03:04:00,36.2,23.2,30.21,SSE,168,0.0,0.0,59,0.00,,,0.00,Wunderground v.1.15,2013-01-13 11:04:00,
2013-01-13 03:09:00,36.1,23.5,30.21,SSE,168,0.0,0.0,60,0.00,,,0.00,Wunderground v.1.15,2013-01-13 11:09:00,
2013-01-13 03:14:00,36.1,23.5,30.21,SSE,168,0.0,0.0,60,0.00,,,0.00,Wunderground v.1.15,2013-01-13 11:14:00,
2013-01-13 03:19:00,36.1,23.5,30.21,SSE,168,0.0,0.0,60,0.00,,,0.00,Wunderground v.1.15,2013-01-13 11:19:00,
2013-01-13 03:24:00,36.1,23.5,30.21,SSE,168,0.0,0.0,60,0.00,,,0.00,Wunderground v.1.15,2013-01-13 11:24:00,
2013-01-13 03:29:00,35.9,23.4,30.21,SSE,168,0.0,0.0,60,0.00,,,0.00,Wunderground v.1.15,2013-01-13 11:29:00,
2013-01-13 03:34:00,35.7,23.6,30.21,SSE,168,0.0,0.0,61,0.00,,,0.00,Wunderground v.1.15,2013-01-13 11:34:00,
2013-01-13 03:39:00,35.3,23.2,30.21,SSE,168,0.0,0.0,61,0.00,,,0.00,Wunderground v.1.15,2013-01-13 11:39:00,
2013-01-13 03:44:00,34.9,22.8,30.21,SSE,168,0.0,0.0,61,0.00,,,0.00,Wunderground v.1.15,2013-01-13 11:44:00,
2013-01-13 03:49:00,34.4,23.1,30.21,SSE,168,0.0,0.0,63,0.00,,,0.00,Wunderground v.1.15,2013-01-13 11:49:00,
2013-01-13 03:54:00,34.4,23.1,30.21,SSE,168,0.0,0.0,63,0.00,,,0.00,Wunderground v.1.15,2013-01-13 11:54:00,
2013-01-13 03:59:00,34.4,23.1,30.21,SSE,168,0.0,0.0,63,0.00,,,0.00,Wunderground v.1.15,2013-01-13 11:59:00,
2013-01-13 04:04:00,34.4,23.1,30.20,SSE,168,0.0,0.0,63,0.00,,,0.00,Wunderground v.1.15,2013-01-13 12:04:00,
2013-01-13 04:09:00,34.3,23.0,30.20,SSE,168,0.0,0.0,63,0.00,,,0.00,Wunderground v.1.15,2013-01-13 12:09:00,
2013-01-13 04:14:00,34.4,23.1,30.20,SSE,168,0.0,0.0,63,0.00,,,0.00,Wunderground v.1.15,2013-01-13 12:14:00,
2013-01-13 04:19:00,34.4,23.1,30.20,SSE,168,0.0,0.0,63,0.00,,,0.00,Wunderground v.1.15,2013-01-13 12:19:00,
2013-01-13 04:24:00,34.4,23.1,30.20,SSE,168,0.0,0.0,63,0.00,,,0.00,Wunderground v.1.15,2013-01-13 12:24:00,
2013-01-13 04:29:00,34.4,22.7,30.20,SSE,168,0.0,0.0,62,0.00,,,0.00,Wunderground v.1.15,2013-01-13 12:29:00,
2013-01-13 04:34:00,34.4,22.3,30.20,SSE,168,0.0,1.0,61,0.00,,,0.00,Wunderground v.1.15,2013-01-13 12:34:00,
2013-01-13 04:39:00,34.7,22.2,30.20,SSE,168,0.0,1.0,60,0.00,,,0.00,Wunderground v.1.15,2013-01-13 12:39:00,
2013-01-13 04:44:00,34.7,21.8,30.21,SSE,168,0.0,0.0,59,0.00,,,0.00,Wunderground v.1.15,2013-01-13 12:44:00,
2013-01-13 04:49:00,34.6,21.7,30.20,SSE,168,0.0,0.0,59,0.00,,,0.00,Wunderground v.1.15,2013-01-13 12:49:00,
2013-01-13 04:54:00,34.6,22.1,30.21,SSE,168,0.0,0.0,60,0.00,,,0.00,Wunderground v.1.15,2013-01-13 12:54:00,
2013-01-13 04:59:00,34.5,21.6,30.21,SSE,168,0.0,0.0,59,0.00,,,0.00,Wunderground v.1.15,2013-01-13 12:59:00,
2013-01-13 05:04:00,34.4,21.5,30.22,SSE,168,0.0,0.0,59,0.00,,,0.00,Wunderground v.1.15,2013-01-13 13:04:00,
2013-01-13 05:09:00,34.4,21.5,30.22,SSE,168,0.0,1.0,59,0.00,,,0.00,Wunderground v.1.15,2013-01-13 13:09:00,
2013-01-13 05:14:00,34.4,21.5,30.22,SSE,168,0.0,0.0,59,0.00,,,0.00,Wunderground v.1.15,2013-01-13 13:14:00,
2013-01-13 05:19:00,34.4,21.5,30.22,SSE,168,0.0,0.0,59,0.00,,,0.00,Wunderground v.1.15,2013-01-13 13:19:00,
2013-01-13 05:24:00,34.4,21.9,30.22,SSE,168,0.0,0.0,60,0.00,,,0.00,Wunderground v.1.15,2013-01-13 13:24:00,
2013-01-13 05:29:00,34.4,21.5,30.23,SSE,168,0.0,1.0,59,0.00,,,0.00,Wunderground v.1.15,2013-01-13 13:29:00,
2013-01-13 05:34:00,34.3,21.4,30.23,SSE,168,0.0,0.0,59,0.00,,,0.00,Wunderground v.1.15,2013-01-13 13:34:00,
2013-01-13 05:39:00,34.1,21.3,30.23,SSE,168,0.0,0.0,59,0.00,,,0.00,Wunderground v.1.15,2013-01-13 13:39:00,
2013-01-13 05:44:00,33.9,21.1,30.23,SSE,168,0.0,0.0,59,0.00,,,0.00,Wunderground v.1.15,2013-01-13 13:44:00,
2013-01-13 05:49:00,33.7,21.3,30.23,SSE,168,0.0,0.0,60,0.00,,,0.00,Wunderground v.1.15,2013-01-13 13:49:00,
2013-01-13 05:54:00,33.5,21.1,30.24,SSE,168,0.0,0.0,60,0.00,,,0.00,Wunderground v.1.15,2013-01-13 13:54:00,
2013-01-13 05:59:00,33.3,20.9,30.24,SSE,168,0.0,0.0,60,0.00,,,0.00,Wunderground v.1.15,2013-01-13 13:59:00,
2013-01-13 06:04:00,33.3,20.9,30.23,SSE,168,0.0,1.0,60,0.00,,,0.00,Wunderground v.1.15,2013-01-13 14:04:00,
2013-01-13 06:09:00,33.3,20.9,30.24,SSE,168,0.0,1.0,60,0.00,,,0.00,Wunderground v.1.15,2013-01-13 14:09:00,
2013-01-13 06:14:00,33.4,21.0,30.24,SSE,168,0.0,0.0,60,0.00,,,0.00,Wunderground v.1.15,2013-01-13 14:14:00,
2013-01-13 06:19:00,33.4,20.6,30.24,SSE,168,0.0,0.0,59,0.00,,,0.00,Wunderground v.1.15,2013-01-13 14:19:00,
2013-01-13 06:24:00,33.3,20.5,30.24,SSE,168,0.0,1.0,59,0.00,,,0.00,Wunderground v.1.15,2013-01-13 14:24:00,
2013-01-13 06:29:00,33.4,20.6,30.24,SSE,168,0.0,1.0,59,0.00,,,0.00,Wunderground v.1.15,2013-01-13 14:29:00,
2013-01-13 06:34:00,33.5,20.7,30.24,SSE,168,0.0,0.0,59,0.00,,,0.00,Wunderground v.1.15,2013-01-13 14:34:00,
2013-01-13 06:39:00,33.7,20.9,30.25,SSE,168,0.0,0.0,59,0.00,,,0.00,Wunderground v.1.15,2013-01-13 14:39:00,
2013-01-13 06:44:00,33.6,20.8,30.25,SSE,168,0.0,0.0,59,0.00,,,0.00,Wunderground v.1.15,2013-01-13 14:44:00,
2013-01-13 06:49:00,33.4,20.6,30.25,SSE,168,0.0,0.0,59,0.00,,,0.00,Wunderground v.1.15,2013-01-13 14:49:00,
2013-01-13 06:54:00,33.3,20.9,30.25,SSE,168,0.0,1.0,60,0.00,,,0.00,Wunderground v.1.15,2013-01-13 14:54:00,
2013-01-13 06:59:00,33.2,20.8,30.25,SSE,168,0.0,1.0,60,0.00,,,0.00,Wunderground v.1.15,2013-01-13 14:59:00,
2013-01-13 07:04:00,33.1,20.3,30.25,SSE,168,0.0,0.0,59,0.00,,,0.00,Wunderground v.1.15,2013-01-13 15:04:00,
2013-01-13 07:09:00,32.9,20.1,30.25,SSE,168,0.0,0.0,59,0.00,,,0.00,Wunderground v.1.15,2013-01-13 15:09:00,
2013-01-13 07:14:00,32.9,20.1,30.25,SSE,168,0.0,0.0,59,0.00,,,0.00,Wunderground v.1.15,2013-01-13 15:14:00,
2013-01-13 07:19:00,32.9,20.1,30.26,SSE,168,0.0,0.0,59,0.00,,,0.00,Wunderground v.1.15,2013-01-13 15:19:00,
2013-01-13 07:24:00,33.2,20.4,30.26,SSE,168,0.0,0.0,59,0.00,,,0.00,Wunderground v.1.15,2013-01-13 15:24:00,
2013-01-13 07:29:00,33.5,20.7,30.26,SSE,168,0.0,0.0,59,0.00,,,0.00,Wunderground v.1.15,2013-01-13 15:29:00,
2013-01-13 07:34:00,34.0,21.2,30.26,SSE,168,0.0,0.0,59,0.00,,,0.00,Wunderground v.1.15,2013-01-13 15:34:00,
2013-01-13 07:39:00,34.4,21.1,30.26,SSE,168,0.0,0.0,58,0.00,,,0.00,Wunderground v.1.15,2013-01-13 15:39:00,
2013-01-13 07:44:00,35.1,22.2,30.26,SSE,168,0.0,1.0,59,0.00,,,0.00,Wunderground v.1.15,2013-01-13 15:44:00,
2013-01-13 07:49:00,35.8,22.0,30.26,SSE,168,0.0,1.0,57,0.00,,,0.00,Wunderground v.1.15,2013-01-13 15:49:00,
2013-01-13 07:54:00,36.6,21.9,30.26,SSE,168,0.0,1.0,55,0.00,,,0.00,Wunderground v.1.15,2013-01-13 15:54:00,
2013-01-13 07:59:00,37.3,22.2,30.27,SSE,168,0.0,1.0,54,0.00,,,0.00,Wunderground v.1.15,2013-01-13 15:59:00,
2013-01-13 08:04:00,37.9,22.3,30.27,SSE,168,0.0,0.0,53,0.00,,,0.00,Wunderground v.1.15,2013-01-13 16:04:00,
2013-01-13 08:09:00,38.7,22.6,30.27,SSE,168,0.0,0.0,52,0.00,,,0.00,Wunderground v.1.15,2013-01-13 16:09:00,
2013-01-13 08:14:00,39.3,21.7,30.27,SSE,168,0.0,1.0,49,0.00,,,0.00,Wunderground v.1.15,2013-01-13 16:14:00,
2013-01-13 08:19:00,40.0,22.8,30.26,SSE,168,0.0,1.0,50,0.00,,,0.00,Wunderground v.1.15,2013-01-13 16:19:00,
2013-01-13 08:24:00,41.1,21.9,30.26,SSE,168,1.0,2.0,46,0.00,,,0.00,Wunderground v.1.15,2013-01-13 16:24:00,
2013-01-13 08:29:00,42.0,21.6,30.27,ESE,111,0.0,4.0,44,0.00,,,0.00,Wunderground v.1.15,2013-01-13 16:29:00,
2013-01-13 08:34:00,42.6,22.2,30.27,East,101,0.0,2.0,44,0.00,,,0.00,Wunderground v.1.15,2013-01-13 16:34:00,
2013-01-13 08:39:00,43.1,22.1,30.27,NE,51,0.0,5.0,43,0.00,,,0.00,Wunderground v.1.15,2013-01-13 16:39:00,
2013-01-13 08:45:00,43.7,21.5,30.27,NE,51,0.0,3.0,41,0.00,,,0.00,Wunderground v.1.15,2013-01-13 16:45:00,
2013-01-13 08:50:00,44.0,21.2,30.28,NE,47,1.0,1.0,40,0.00,,,0.00,Wunderground v.1.15,2013-01-13 16:50:00,
2013-01-13 08:55:00,44.4,20.3,30.28,NE,46,0.0,4.0,38,0.00,,,0.00,Wunderground v.1.15,2013-01-13 16:55:00,
2013-01-13 09:00:00,45.5,21.3,30.28,NE,47,0.0,1.0,38,0.00,,,0.00,Wunderground v.1.15,2013-01-13 17:00:00,
2013-01-13 09:05:00,46.5,21.6,30.28,NE,47,0.0,5.0,37,0.00,,,0.00,Wunderground v.1.15,2013-01-13 17:05:00,
2013-01-13 09:10:00,47.2,20.9,30.27,NE,47,0.0,5.0,35,0.00,,,0.00,Wunderground v.1.15,2013-01-13 17:10:00,
2013-01-13 09:15:00,47.8,22.1,30.27,NE,47,0.0,2.0,36,0.00,,,0.00,Wunderground v.1.15,2013-01-13 17:15:00,
2013-01-13 09:19:00,48.3,22.5,30.27,NE,47,0.0,2.0,36,0.00,,,0.00,Wunderground v.1.15,2013-01-13 17:19:00,
2013-01-13 09:24:00,48.7,20.8,30.27,ESE,111,0.0,2.0,33,0.00,,,0.00,Wunderground v.1.15,2013-01-13 17:24:00,
2013-01-13 09:30:00,49.1,21.2,30.27,East,79,0.0,3.0,33,0.00,,,0.00,Wunderground v.1.15,2013-01-13 17:30:00,
2013-01-13 09:35:00,49.1,21.2,30.27,SE,131,0.0,4.0,33,0.00,,,0.00,Wunderground v.1.15,2013-01-13 17:35:00,
2013-01-13 09:40:00,49.4,21.5,30.27,SE,130,0.0,0.0,33,0.00,,,0.00,Wunderground v.1.15,2013-01-13 17:40:00,
2013-01-13 09:45:00,50.2,20.7,30.27,SSE,147,3.0,3.0,31,0.00,,,0.00,Wunderground v.1.15,2013-01-13 17:45:00,
2013-01-13 09:50:00,50.0,19.7,30.26,SSE,150,0.0,1.0,30,0.00,,,0.00,Wunderground v.1.15,2013-01-13 17:50:00,
2013-01-13 09:55:00,50.0,20.5,30.26,SSE,150,0.0,2.0,31,0.00,,,0.00,Wunderground v.1.15,2013-01-13 17:55:00,
2013-01-13 10:00:00,50.4,19.3,30.26,SE,142,0.0,0.0,29,0.00,,,0.00,Wunderground v.1.15,2013-01-13 18:00:00,
2013-01-13 10:05:00,51.0,20.6,30.26,SE,142,1.0,1.0,30,0.00,,,0.00,Wunderground v.1.15,2013-01-13 18:05:00,
2013-01-13 10:10:00,51.6,20.3,30.26,SE,142,0.0,0.0,29,0.00,,,0.00,Wunderground v.1.15,2013-01-13 18:10:00,
2013-01-13 10:15:00,52.3,20.1,30.26,North,360,0.0,4.0,28,0.00,,,0.00,Wunderground v.1.15,2013-01-13 18:15:00,
2013-01-13 10:20:00,52.6,20.4,30.26,NE,45,0.0,1.0,28,0.00,,,0.00,Wunderground v.1.15,2013-01-13 18:20:00,
2013-01-13 10:25:00,52.6,20.4,30.26,NE,46,0.0,3.0,28,0.00,,,0.00,Wunderground v.1.15,2013-01-13 18:25:00,
2013-01-13 10:30:00,52.4,20.2,30.25,NE,46,0.0,0.0,28,0.00,,,0.00,Wunderground v.1.15,2013-01-13 18:30:00,
2013-01-13 10:35:00,52.4,20.2,30.25,North,9,0.0,3.0,28,0.00,,,0.00,Wunderground v.1.15,2013-01-13 18:35:00,
2013-01-13 10:40:00,52.8,20.5,30.25,WNW,288,0.0,0.0,28,0.00,,,0.00,Wunderground v.1.15,2013-01-13 18:40:00,
2013-01-13 10:45:00,53.7,21.3,30.24,NNE,16,3.0,3.0,28,0.00,,,0.00,Wunderground v.1.15,2013-01-13 18:45:00,
2013-01-13 10:50:00,53.5,20.3,30.24,NE,53,0.0,1.0,27,0.00,,,0.00,Wunderground v.1.15,2013-01-13 18:50:00,
2013-01-13 10:55:00,54.1,21.7,30.24,NE,55,0.0,1.0,28,0.00,,,0.00,Wunderground v.1.15,2013-01-13 18:55:00,
2013-01-13 11:00:00,54.4,21.9,30.24,SSW,204,0.0,0.0,28,0.00,,,0.00,Wunderground v.1.15,2013-01-13 19:00:00,
2013-01-13 11:05:00,54.9,21.5,30.23,ENE,77,1.0,2.0,27,0.00,,,0.00,Wunderground v.1.15,2013-01-13 19:05:00,
2013-01-13 11:10:00,55.2,20.9,30.23,NE,46,2.0,2.0,26,0.00,,,0.00,Wunderground v.1.15,2013-01-13 19:10:00,
2013-01-13 11:15:00,55.3,21.8,30.22,NE,46,0.0,2.0,27,0.00,,,0.00,Wunderground v.1.15,2013-01-13 19:15:00,
2013-01-13 11:20:00,55.8,21.4,30.21,NE,47,0.0,0.0,26,0.00,,,0.00,Wunderground v.1.15,2013-01-13 19:20:00,
2013-01-13 11:25:00,55.1,20.8,30.21,SSE,154,0.0,6.0,26,0.00,,,0.00,Wunderground v.1.15,2013-01-13 19:25:00,
2013-01-13 11:30:00,54.5,20.3,30.20,SSE,155,0.0,1.0,26,0.00,,,0.00,Wunderground v.1.15,2013-01-13 19:30:00,
2013-01-13 11:35:00,54.7,21.3,30.20,SSW,204,0.0,4.0,27,0.00,,,0.00,Wunderground v.1.15,2013-01-13 19:35:00,
2013-01-13 11:40:00,54.9,21.5,30.19,ENE,72,0.0,2.0,27,0.00,,,0.00,Wunderground v.1.15,2013-01-13 19:40:00,
2013-01-13 11:45:00,55.5,22.0,30.19,East,95,0.0,2.0,27,0.00,,,0.00,Wunderground v.1.15,2013-01-13 19:45:00,
2013-01-13 11:50:00,55.7,21.3,30.18,SW,225,0.0,1.0,26,0.00,,,0.00,Wunderground v.1.15,2013-01-13 19:50:00,
2013-01-13 11:55:00,56.1,21.6,30.18,SW,225,0.0,1.0,26,0.00,,,0.00,Wunderground v.1.15,2013-01-13 19:55:00,
2013-01-13 12:00:00,56.1,19.8,30.18,SSE,159,0.0,0.0,24,0.00,,,0.00,Wunderground v.1.15,2013-01-13 20:00:00,
2013-01-13 12:05:00,56.1,19.8,30.17,NE,44,0.0,1.0,24,0.00,,,0.00,Wunderground v.1.15,2013-01-13 20:05:00,
2013-01-13 12:10:00,56.4,20.0,30.17,ESE,115,0.0,1.0,24,0.00,,,0.00,Wunderground v.1.15,2013-01-13 20:10:00,
2013-01-13 12:15:00,56.6,20.2,30.17,West,259,0.0,4.0,24,0.00,,,0.00,Wunderground v.1.15,2013-01-13 20:15:00,
2013-01-13 12:20:00,57.0,21.5,30.16,West,259,2.0,3.0,25,0.00,,,0.00,Wunderground v.1.15,2013-01-13 20:20:00,
2013-01-13 12:25:00,56.5,21.1,30.16,WSW,241,2.0,6.0,25,0.00,,,0.00,Wunderground v.1.15,2013-01-13 20:25:00,
2013-01-13 12:30:00,55.8,20.5,30.16,WSW,241,0.0,1.0,25,0.00,,,0.00,Wunderground v.1.15,2013-01-13 20:30:00,
2013-01-13 12:35:00,56.3,19.9,30.16,WSW,240,0.0,4.0,24,0.00,,,0.00,Wunderground v.1.15,2013-01-13 20:35:00,
2013-01-13 12:40:00,56.5,20.1,30.16,WSW,240,0.0,1.0,24,0.00,,,0.00,Wunderground v.1.15,2013-01-13 20:40:00,
2013-01-13 12:45:00,56.8,20.3,30.16,WSW,240,0.0,7.0,24,0.00,,,0.00,Wunderground v.1.15,2013-01-13 20:45:00,
2013-01-13 12:50:00,56.5,21.1,30.16,WSW,254,0.0,4.0,25,0.00,,,0.00,Wunderground v.1.15,2013-01-13 20:50:00,
2013-01-13 12:55:00,56.7,20.3,30.16,WSW,254,0.0,4.0,24,0.00,,,0.00,Wunderground v.1.15,2013-01-13 20:55:00,
2013-01-13 13:00:00,57.5,20.9,30.15,West,265,0.0,0.0,24,0.00,,,0.00,Wunderground v.1.15,2013-01-13 21:00:00,
2013-01-13 13:05:00,57.8,21.2,30.15,West,274,2.0,6.0,24,0.00,,,0.00,Wunderground v.1.15,2013-01-13 21:05:00,
2013-01-13 13:10:00,57.6,21.0,30.15,NW,309,0.0,2.0,24,0.00,,,0.00,Wunderground v.1.15,2013-01-13 21:10:00,
2013-01-13 13:15:00,57.3,20.8,30.15,SW,217,1.0,5.0,24,0.00,,,0.00,Wunderground v.1.15,2013-01-13 21:15:00,
2013-01-13 13:20:00,57.5,21.9,30.15,WNW,285,1.0,3.0,25,0.00,,,0.00,Wunderground v.1.15,2013-01-13 21:20:00,
2013-01-13 13:25:00,57.5,19.9,30.14,WSW,256,1.0,4.0,23,0.00,,,0.00,Wunderground v.1.15,2013-01-13 21:25:00,
2013-01-13 13:30:00,56.9,21.4,30.15,WSW,242,0.0,1.0,25,0.00,,,0.00,Wunderground v.1.15,2013-01-13 21:30:00,
2013-01-13 13:35:00,56.4,20.0,30.14,WSW,248,0.0,7.0,24,0.00,,,0.00,Wunderground v.1.15,2013-01-13 21:35:00,
2013-01-13 13:40:00,56.1,19.8,30.14,WSW,249,1.0,2.0,24,0.00,,,0.00,Wunderground v.1.15,2013-01-13 21:40:00,
2013-01-13 13:45:00,55.6,20.3,30.14,WSW,243,0.0,6.0,25,0.00,,,0.00,Wunderground v.1.15,2013-01-13 21:45:00,
2013-01-13 13:50:00,56.0,19.7,30.14,West,263,0.0,1.0,24,0.00,,,0.00,Wunderground v.1.15,2013-01-13 21:50:00,
2013-01-13 13:55:00,56.5,21.1,30.14,WSW,238,0.0,4.0,25,0.00,,,0.00,Wunderground v.1.15,2013-01-13 21:55:00,
2013-01-13 14:00:00,56.9,20.4,30.14,SW,231,4.0,7.0,24,0.00,,,0.00,Wunderground v.1.15,2013-01-13 22:00:00,
2013-01-13 14:05:00,56.5,20.1,30.15,WSW,252,0.0,7.0,24,0.00,,,0.00,Wunderground v.1.15,2013-01-13 22:05:00,
2013-01-13 14:10:00,56.3,19.9,30.15,WSW,252,4.0,5.0,24,0.00,,,0.00,Wunderground v.1.15,2013-01-13 22:10:00,
2013-01-13 14:15:00,56.1,19.8,30.14,West,263,0.0,5.0,24,0.00,,,0.00,Wunderground v.1.15,2013-01-13 22:15:00,
2013-01-13 14:20:00,56.6,20.2,30.14,West,260,0.0,5.0,24,0.00,,,0.00,Wunderground v.1.15,2013-01-13 22:20:00,
2013-01-13 14:25:00,56.7,22.2,30.14,WSW,250,2.0,5.0,26,0.00,,,0.00,Wunderground v.1.15,2013-01-13 22:25:00,
2013-01-13 14:30:00,56.5,20.1,30.15,WSW,242,5.0,7.0,24,0.00,,,0.00,Wunderground v.1.15,2013-01-13 22:30:00,
2013-01-13 14:35:00,56.0,19.7,30.14,NW,307,0.0,7.0,24,0.00,,,0.00,Wunderground v.1.15,2013-01-13 22:35:00,
2013-01-13 14:40:00,56.3,20.9,30.15,NW,305,0.0,2.0,25,0.00,,,0.00,Wunderground v.1.15,2013-01-13 22:40:00,
2013-01-13 14:45:00,56.2,19.8,30.15,WSW,247,2.0,6.0,24,0.00,,,0.00,Wunderground v.1.15,2013-01-13 22:45:00,
2013-01-13 14:50:00,55.7,19.4,30.14,WSW,256,0.0,5.0,24,0.00,,,0.00,Wunderground v.1.15,2013-01-13 22:50:00,
2013-01-13 14:56:00,55.5,19.2,30.14,South,178,3.0,6.0,24,0.00,,,0.00,Wunderground v.1.15,2013-01-13 22:56:00,
2013-01-13 15:01:00,55.5,20.2,30.14,WSW,251,0.0,5.0,25,0.00,,,0.00,Wunderground v.1.15,2013-01-13 23:01:00,
2013-01-13 15:06:00,55.3,19.1,30.13,South,175,2.0,6.0,24,0.00,,,0.00,Wunderground v.1.15,2013-01-13 23:06:00,
2013-01-13 15:11:00,55.4,19.2,30.13,South,178,1.0,3.0,24,0.00,,,0.00,Wunderground v.1.15,2013-01-13 23:11:00,
2013-01-13 15:16:00,55.8,19.5,30.13,WSW,244,0.0,4.0,24,0.00,,,0.00,Wunderground v.1.15,2013-01-13 23:16:00,
2013-01-13 15:21:00,56.2,19.8,30.13,WSW,237,0.0,3.0,24,0.00,,,0.00,Wunderground v.1.15,2013-01-13 23:21:00,
2013-01-13 15:25:00,56.4,20.0,30.13,WNW,300,0.0,6.0,24,0.00,,,0.00,Wunderground v.1.15,2013-01-13 23:25:00,
2013-01-13 15:30:00,56.7,20.3,30.13,WNW,298,0.0,5.0,24,0.00,,,0.00,Wunderground v.1.15,2013-01-13 23:30:00,
2013-01-13 15:35:00,56.4,20.0,30.13,WSW,242,1.0,5.0,24,0.00,,,0.00,Wunderground v.1.15,2013-01-13 23:35:00,
2013-01-13 15:40:00,55.9,19.6,30.13,SSW,196,3.0,4.0,24,0.00,,,0.00,Wunderground v.1.15,2013-01-13 23:40:00,
2013-01-13 15:45:00,55.5,19.2,30.13,South,171,0.0,5.0,24,0.00,,,0.00,Wunderground v.1.15,2013-01-13 23:45:00,
2013-01-13 15:50:00,55.0,19.8,30.13,SSW,194,0.0,1.0,25,0.00,,,0.00,Wunderground v.1.15,2013-01-13 23:50:00,
2013-01-13 15:55:00,54.6,19.4,30.13,SSW,202,0.0,8.0,25,0.00,,,0.00,Wunderground v.1.15,2013-01-13 23:55:00,
2013-01-13 16:00:00,54.4,19.3,30.13,SW,214,5.0,6.0,25,0.00,,,0.00,Wunderground v.1.15,2013-01-14 00:00:00,
2013-01-13 16:05:00,54.2,20.9,30.13,West,261,4.0,10.0,27,0.00,,,0.00,Wunderground v.1.15,2013-01-14 00:05:00,
2013-01-13 16:10:00,53.9,22.3,30.13,WSW,254,0.0,4.0,29,0.00,,,0.00,Wunderground v.1.15,2013-01-14 00:10:00,
2013-01-13 16:16:00,53.3,21.8,30.13,WSW,254,4.0,7.0,29,0.00,,,0.00,Wunderground v.1.15,2013-01-14 00:16:00,
2013-01-13 16:21:00,52.8,21.4,30.13,SSW,196,5.0,5.0,29,0.00,,,0.00,Wunderground v.1.15,2013-01-14 00:21:00,
2013-01-13 16:26:00,52.4,21.8,30.13,WSW,252,2.0,9.0,30,0.00,,,0.00,Wunderground v.1.15,2013-01-14 00:26:00,
2013-01-13 16:31:00,52.2,22.4,30.14,WSW,239,1.0,6.0,31,0.00,,,0.00,Wunderground v.1.15,2013-01-14 00:31:00,
2013-01-13 16:36:00,51.9,22.9,30.14,WSW,254,1.0,9.0,32,0.00,,,0.00,Wunderground v.1.15,2013-01-14 00:36:00,
2013-01-13 16:41:00,51.6,23.4,30.13,WSW,246,5.0,10.0,33,0.00,,,0.00,Wunderground v.1.15,2013-01-14 00:41:00,
2013-01-13 16:46:00,51.3,23.1,30.13,WSW,249,0.0,10.0,33,0.00,,,0.00,Wunderground v.1.15,2013-01-14 00:46:00,
2013-01-13 16:51:00,51.1,23.7,30.13,WSW,251,1.0,1.0,34,0.00,,,0.00,Wunderground v.1.15,2013-01-14 00:51:00,
2013-01-13 16:56:00,50.8,24.1,30.14,SW,231,1.0,9.0,35,0.00,,,0.00,Wunderground v.1.15,2013-01-14 00:56:00,
2013-01-13 17:01:00,50.5,24.5,30.14,WSW,242,0.0,7.0,36,0.00,,,0.00,Wunderground v.1.15,2013-01-14 01:01:00,
2013-01-13 17:06:00,50.2,24.2,30.14,West,276,0.0,7.0,36,0.00,,,0.00,Wunderground v.1.15,2013-01-14 01:06:00,
2013-01-13 17:11:00,49.8,24.5,30.14,West,259,0.0,3.0,37,0.00,,,0.00,Wunderground v.1.15,2013-01-14 01:11:00,
2013-01-13 17:16:00,49.6,25.0,30.14,WSW,242,0.0,7.0,38,0.00,,,0.00,Wunderground v.1.15,2013-01-14 01:16:00,
2013-01-13 17:21:00,49.4,25.4,30.14,West,267,0.0,1.0,39,0.00,,,0.00,Wunderground v.1.15,2013-01-14 01:21:00,
2013-01-13 17:26:00,49.2,25.3,30.14,WSW,244,1.0,5.0,39,0.00,,,0.00,Wunderground v.1.15,2013-01-14 01:26:00,
2013-01-13 17:31:00,49.0,25.1,30.14,WSW,250,3.0,3.0,39,0.00,,,0.00,Wunderground v.1.15,2013-01-14 01:31:00,
2013-01-13 17:36:00,48.9,25.0,30.15,WSW,250,0.0,3.0,39,0.00,,,0.00,Wunderground v.1.15,2013-01-14 01:36:00,
2013-01-13 17:41:00,48.7,25.4,30.15,WSW,250,1.0,2.0,40,0.00,,,0.00,Wunderground v.1.15,2013-01-14 01:41:00,
2013-01-13 17:46:00,48.4,25.2,30.15,WSW,250,0.0,3.0,40,0.00,,,0.00,Wunderground v.1.15,2013-01-14 01:46:00,
2013-01-13 17:51:00,48.3,25.1,30.15,WSW,250,0.0,0.0,40,0.00,,,0.00,Wunderground v.1.15,2013-01-14 01:51:00,
2013-01-13 17:56:00,48.0,25.4,30.15,WSW,250,0.0,0.0,41,0.00,,,0.00,Wunderground v.1.15,2013-01-14 01:56:00,
2013-01-13 18:01:00,47.6,25.0,30.15,WSW,250,0.0,0.0,41,0.00,,,0.00,Wunderground v.1.15,2013-01-14 02:01:00,
2013-01-13 18:06:00,47.1,25.2,30.16,WSW,250,0.0,0.0,42,0.00,,,0.00,Wunderground v.1.15,2013-01-14 02:06:00,
2013-01-13 18:11:00,46.7,25.4,30.16,WSW,250,0.0,0.0,43,0.00,,,0.00,Wunderground v.1.15,2013-01-14 02:11:00,
2013-01-13 18:16:00,46.4,25.1,30.15,WSW,250,0.0,0.0,43,0.00,,,0.00,Wunderground v.1.15,2013-01-14 02:16:00,
2013-01-13 18:21:00,46.4,25.6,30.15,WSW,250,0.0,0.0,44,0.00,,,0.00,Wunderground v.1.15,2013-01-14 02:21:00,
2013-01-13 18:26:00,46.3,25.6,30.15,WSW,250,0.0,0.0,44,0.00,,,0.00,Wunderground v.1.15,2013-01-14 02:26:00,
2013-01-13 18:31:00,46.0,25.8,30.16,WSW,250,0.0,0.0,45,0.00,,,0.00,Wunderground v.1.15,2013-01-14 02:31:00,
2013-01-13 18:36:00,45.6,26.0,30.16,WSW,250,0.0,0.0,46,0.00,,,0.00,Wunderground v.1.15,2013-01-14 02:36:00,
2013-01-13 18:41:00,45.4,26.3,30.16,WSW,250,0.0,0.0,47,0.00,,,0.00,Wunderground v.1.15,2013-01-14 02:41:00,
2013-01-13 18:46:00,45.1,26.1,30.16,WSW,250,0.0,0.0,47,0.00,,,0.00,Wunderground v.1.15,2013-01-14 02:46:00,
2013-01-13 18:51:00,44.8,26.3,30.16,WSW,250,0.0,0.0,48,0.00,,,0.00,Wunderground v.1.15,2013-01-14 02:51:00,
2013-01-13 18:56:00,44.5,26.5,30.16,WSW,250,0.0,0.0,49,0.00,,,0.00,Wunderground v.1.15,2013-01-14 02:56:00,
2013-01-13 19:01:00,44.1,26.1,30.16,WSW,250,0.0,0.0,49,0.00,,,0.00,Wunderground v.1.15,2013-01-14 03:01:00,
2013-01-13 19:05:00,43.8,25.9,30.16,WSW,250,0.0,0.0,49,0.00,,,0.00,Wunderground v.1.15,2013-01-14 03:05:00,
2013-01-13 19:10:00,43.5,26.1,30.16,WSW,250,0.0,0.0,50,0.00,,,0.00,Wunderground v.1.15,2013-01-14 03:10:00,
2013-01-13 19:15:00,43.4,26.0,30.16,WSW,250,0.0,0.0,50,0.00,,,0.00,Wunderground v.1.15,2013-01-14 03:15:00,
2013-01-13 19:20:00,43.4,26.0,30.16,WSW,250,0.0,0.0,50,0.00,,,0.00,Wunderground v.1.15,2013-01-14 03:20:00,
2013-01-13 19:25:00,43.2,25.8,30.16,WSW,250,0.0,0.0,50,0.00,,,0.00,Wunderground v.1.15,2013-01-14 03:25:00,
2013-01-13 19:30:00,42.9,26.0,30.16,WSW,250,0.0,0.0,51,0.00,,,0.00,Wunderground v.1.15,2013-01-14 03:30:00,
2013-01-13 19:35:00,42.6,25.7,30.16,WSW,250,0.0,0.0,51,0.00,,,0.00,Wunderground v.1.15,2013-01-14 03:35:00,
2013-01-13 19:40:00,42.2,26.3,30.16,WSW,250,0.0,0.0,53,0.00,,,0.00,Wunderground v.1.15,2013-01-14 03:40:00,
2013-01-13 19:45:00,41.9,26.0,30.16,WSW,250,0.0,0.0,53,0.00,,,0.00,Wunderground v.1.15,2013-01-14 03:45:00,
2013-01-13 19:50:00,41.7,25.8,30.16,WSW,250,0.0,1.0,53,0.00,,,0.00,Wunderground v.1.15,2013-01-14 03:50:00,
2013-01-13 19:55:00,41.8,25.0,30.17,WSW,250,0.0,2.0,51,0.00,,,0.00,Wunderground v.1.15,2013-01-14 03:55:00,
2013-01-13 20:00:00,41.9,25.1,30.17,WSW,250,0.0,0.0,51,0.00,,,0.00,Wunderground v.1.15,2013-01-14 04:00:00,
2013-01-13 20:05:00,41.7,24.9,30.17,WSW,250,0.0,1.0,51,0.00,,,0.00,Wunderground v.1.15,2013-01-14 04:05:00,
2013-01-13 20:10:00,41.5,25.2,30.17,WSW,250,0.0,0.0,52,0.00,,,0.00,Wunderground v.1.15,2013-01-14 04:10:00,
2013-01-13 20:15:00,41.5,24.7,30.17,WSW,250,0.0,1.0,51,0.00,,,0.00,Wunderground v.1.15,2013-01-14 04:15:00,
2013-01-13 20:20:00,41.5,24.7,30.17,WSW,250,0.0,0.0,51,0.00,,,0.00,Wunderground v.1.15,2013-01-14 04:20:00,
2013-01-13 20:25:00,41.3,25.0,30.17,WSW,250,0.0,0.0,52,0.00,,,0.00,Wunderground v.1.15,2013-01-14 04:25:00,
2013-01-13 20:30:00,41.2,25.3,30.18,WSW,250,0.0,0.0,53,0.00,,,0.00,Wunderground v.1.15,2013-01-14 04:30:00,
2013-01-13 20:35:00,41.2,25.3,30.18,WSW,250,0.0,1.0,53,0.00,,,0.00,Wunderground v.1.15,2013-01-14 04:35:00,
2013-01-13 20:40:00,41.3,25.0,30.18,WSW,252,0.0,0.0,52,0.00,,,0.00,Wunderground v.1.15,2013-01-14 04:40:00,
2013-01-13 20:45:00,41.4,24.6,30.18,WSW,249,0.0,3.0,51,0.00,,,0.00,Wunderground v.1.15,2013-01-14 04:45:00,
2013-01-13 20:50:00,41.6,24.8,30.18,WSW,249,0.0,0.0,51,0.00,,,0.00,Wunderground v.1.15,2013-01-14 04:50:00,
2013-01-13 20:55:00,41.9,24.6,30.18,WSW,249,0.0,1.0,50,0.00,,,0.00,Wunderground v.1.15,2013-01-14 04:55:00,
2013-01-13 21:00:00,41.9,24.1,30.18,WSW,248,0.0,0.0,49,0.00,,,0.00,Wunderground v.1.15,2013-01-14 05:00:00,
2013-01-13 21:01:00,41.9,24.1,30.18,WSW,246,0.0,0.0,49,0.00,,,0.00,Wunderground v.1.15,2013-01-14 05:01:00,
2013-01-13 21:06:00,41.8,24.0,30.18,WSW,246,0.0,2.0,49,0.00,,,0.00,Wunderground v.1.15,2013-01-14 05:06:00,
2013-01-13 21:11:00,41.8,24.5,30.18,WSW,246,0.0,0.0,50,0.00,,,0.00,Wunderground v.1.15,2013-01-14 05:11:00,
2013-01-13 21:16:00,41.7,24.4,30.19,WSW,246,0.0,1.0,50,0.00,,,0.00,Wunderground v.1.15,2013-01-14 05:16:00,
2013-01-13 21:21:00,41.5,24.2,30.18,WSW,245,0.0,0.0,50,0.00,,,0.00,Wunderground v.1.15,2013-01-14 05:21:00,
2013-01-13 21:26:00,41.3,24.0,30.19,WSW,246,0.0,1.0,50,0.00,,,0.00,Wunderground v.1.15,2013-01-14 05:26:00,
2013-01-13 21:31:00,41.1,24.8,30.19,WSW,246,0.0,0.0,52,0.00,,,0.00,Wunderground v.1.15,2013-01-14 05:31:00,
2013-01-13 21:36:00,40.9,24.1,30.19,WSW,246,0.0,0.0,51,0.00,,,0.00,Wunderground v.1.15,2013-01-14 05:36:00,
2013-01-13 21:41:00,40.7,24.0,30.19,WSW,246,0.0,1.0,51,0.00,,,0.00,Wunderground v.1.15,2013-01-14 05:41:00,
2013-01-13 21:46:00,40.4,24.1,30.19,WSW,246,0.0,1.0,52,0.00,,,0.00,Wunderground v.1.15,2013-01-14 05:46:00,
2013-01-13 21:51:00,40.2,24.0,30.19,WSW,246,0.0,0.0,52,0.00,,,0.00,Wunderground v.1.15,2013-01-14 05:51:00,
2013-01-13 21:56:00,39.9,24.1,30.19,WSW,246,0.0,0.0,53,0.00,,,0.00,Wunderground v.1.15,2013-01-14 05:56:00,
2013-01-13 22:01:00,39.5,23.8,30.19,WSW,245,0.0,0.0,53,0.00,,,0.00,Wunderground v.1.15,2013-01-14 06:01:00,
2013-01-13 22:06:00,39.0,23.7,30.20,WSW,246,0.0,0.0,54,0.00,,,0.00,Wunderground v.1.15,2013-01-14 06:06:00,
2013-01-13 22:11:00,38.6,23.8,30.20,WSW,245,0.0,0.0,55,0.00,,,0.00,Wunderground v.1.15,2013-01-14 06:11:00,
2013-01-13 22:17:00,38.3,24.0,30.20,WSW,246,0.0,0.0,56,0.00,,,0.00,Wunderground v.1.15,2013-01-14 06:17:00,
2013-01-13 22:22:00,38.1,24.6,30.20,WSW,246,0.0,0.0,58,0.00,,,0.00,Wunderground v.1.15,2013-01-14 06:22:00,
2013-01-13 22:26:00,38.1,24.2,30.21,WSW,246,0.0,0.0,57,0.00,,,0.00,Wunderground v.1.15,2013-01-14 06:26:00,
2013-01-13 22:31:00,37.9,24.0,30.21,WSW,246,0.0,0.0,57,0.00,,,0.00,Wunderground v.1.15,2013-01-14 06:31:00,
2013-01-13 22:36:00,37.8,22.6,30.21,WSW,245,0.0,0.0,54,0.00,,,0.00,Wunderground v.1.15,2013-01-14 06:36:00,
2013-01-13 22:42:00,40.6,18.7,30.21,ENE,62,0.0,6.0,41,0.00,,,0.00,Wunderground v.1.15,2013-01-14 06:42:00,
2013-01-13 22:47:00,44.2,18.2,30.21,ENE,63,0.0,6.0,35,0.00,,,0.00,Wunderground v.1.15,2013-01-14 06:47:00,
2013-01-13 22:52:00,45.0,17.6,30.21,East,95,2.0,2.0,33,0.00,,,0.00,Wunderground v.1.15,2013-01-14 06:52:00,
2013-01-13 22:57:00,45.1,16.2,30.22,NE,46,3.0,5.0,31,0.00,,,0.00,Wunderground v.1.15,2013-01-14 06:57:00,
2013-01-13 23:02:00,45.1,17.0,30.22,NE,51,0.0,0.0,32,0.00,,,0.00,Wunderground v.1.15,2013-01-14 07:02:00,
2013-01-13 23:07:00,45.0,16.9,30.22,ENE,60,0.0,2.0,32,0.00,,,0.00,Wunderground v.1.15,2013-01-14 07:07:00,
2013-01-13 23:12:00,44.6,15.8,30.22,ENE,77,0.0,4.0,31,0.00,,,0.00,Wunderground v.1.15,2013-01-14 07:12:00,
2013-01-13 23:16:00,44.9,16.0,30.22,ENE,69,0.0,5.0,31,0.00,,,0.00,Wunderground v.1.15,2013-01-14 07:16:00,
2013-01-13 23:21:00,45.2,16.3,30.22,East,85,0.0,1.0,31,0.00,,,0.00,Wunderground v.1.15,2013-01-14 07:21:00,
2013-01-13 23:26:00,45.2,15.6,30.22,ENE,68,0.0,7.0,30,0.00,,,0.00,Wunderground v.1.15,2013-01-14 07:26:00,
2013-01-13 23:32:00,45.0,14.6,30.22,NE,45,6.0,6.0,29,0.00,,,0.00,Wunderground v.1.15,2013-01-14 07:32:00,
2013-01-13 23:37:00,45.0,14.6,30.22,NE,53,0.0,6.0,29,0.00,,,0.00,Wunderground v.1.15,2013-01-14 07:37:00,
2013-01-13 23:42:00,44.9,13.7,30.22,NE,49,0.0,4.0,28,0.00,,,0.00,Wunderground v.1.15,2013-01-14 07:42:00,
2013-01-13 23:47:00,44.8,13.6,30.23,NE,37,0.0,4.0,28,0.00,,,0.00,Wunderground v.1.15,2013-01-14 07:47:00,
2013-01-13 23:52:00,44.6,14.3,30.23,NE,55,0.0,1.0,29,0.00,,,0.00,Wunderground v.1.15,2013-01-14 07:52:00,
2013-01-13 23:57:00,44.3,14.8,30.23,NE,55,0.0,3.0,30,0.00,,,0.00,Wunderground v.1.15,2013-01-14 07:57:00,